sensor_id;sensor_type;location;lat;lon;timestamp;P1;durP1;ratioP1;P2;durP2;ratioP2
55330;SDS011;58851;42.984;20.336;2023-07-31T00:00:32;22.33;;;11.20;;
55330;SDS011;58851;42.984;20.336;2023-07-31T00:02:57;24.13;;;12.20;;
55330;SDS011;58851;42.984;20.336;2023-07-31T00:05:23;26.67;;;13.48;;
55330;SDS011;58851;42.984;20.336;2023-07-31T00:07:49;22.42;;;10.18;;
55330;SDS011;58851;42.984;20.336;2023-07-31T00:10:14;19.77;;;10.52;;
55330;SDS011;58851;42.984;20.336;2023-07-31T00:12:42;20.25;;;10.77;;
55330;SDS011;58851;42.984;20.336;2023-07-31T00:15:10;16.38;;;9.35;;
55330;SDS011;58851;42.984;20.336;2023-07-31T00:17:36;19.98;;;9.95;;
55330;SDS011;58851;42.984;20.336;2023-07-31T00:20:02;22.25;;;11.32;;
55330;SDS011;58851;42.984;20.336;2023-07-31T00:22:28;15.18;;;9.05;;
55330;SDS011;58851;42.984;20.336;2023-07-31T00:24:54;18.00;;;9.40;;
55330;SDS011;58851;42.984;20.336;2023-07-31T00:27:20;32.85;;;12.52;;
55330;SDS011;58851;42.984;20.336;2023-07-31T00:29:46;23.00;;;9.32;;
55330;SDS011;58851;42.984;20.336;2023-07-31T00:32:12;24.33;;;9.75;;
55330;SDS011;58851;42.984;20.336;2023-07-31T00:34:38;20.63;;;9.85;;
55330;SDS011;58851;42.984;20.336;2023-07-31T00:37:04;16.27;;;8.30;;
55330;SDS011;58851;42.984;20.336;2023-07-31T00:39:30;18.45;;;8.88;;
55330;SDS011;58851;42.984;20.336;2023-07-31T00:41:56;18.73;;;8.68;;
55330;SDS011;58851;42.984;20.336;2023-07-31T00:44:22;16.33;;;8.70;;
55330;SDS011;58851;42.984;20.336;2023-07-31T00:46:48;18.27;;;8.80;;
55330;SDS011;58851;42.984;20.336;2023-07-31T00:49:14;18.33;;;8.75;;
55330;SDS011;58851;42.984;20.336;2023-07-31T00:51:41;17.75;;;9.48;;
55330;SDS011;58851;42.984;20.336;2023-07-31T00:54:07;18.60;;;8.80;;
55330;SDS011;58851;42.984;20.336;2023-07-31T00:56:33;19.23;;;8.80;;
55330;SDS011;58851;42.984;20.336;2023-07-31T00:58:58;15.75;;;9.80;;
55330;SDS011;58851;42.984;20.336;2023-07-31T01:01:24;19.85;;;8.65;;
55330;SDS011;58851;42.984;20.336;2023-07-31T01:03:50;16.13;;;8.18;;
55330;SDS011;58851;42.984;20.336;2023-07-31T01:06:31;15.50;;;7.80;;
55330;SDS011;58851;42.984;20.336;2023-07-31T01:12:07;17.15;;;7.22;;
55330;SDS011;58851;42.984;20.336;2023-07-31T01:14:36;18.30;;;7.32;;
55330;SDS011;58851;42.984;20.336;2023-07-31T01:17:02;22.77;;;8.30;;
55330;SDS011;58851;42.984;20.336;2023-07-31T01:19:28;20.42;;;7.72;;
55330;SDS011;58851;42.984;20.336;2023-07-31T01:27:06;19.80;;;8.02;;
55330;SDS011;58851;42.984;20.336;2023-07-31T01:29:48;22.55;;;9.02;;
55330;SDS011;58851;42.984;20.336;2023-07-31T01:32:20;19.13;;;7.80;;
55330;SDS011;58851;42.984;20.336;2023-07-31T01:34:47;19.10;;;8.40;;
55330;SDS011;58851;42.984;20.336;2023-07-31T01:37:14;19.13;;;8.65;;
55330;SDS011;58851;42.984;20.336;2023-07-31T01:39:40;22.00;;;8.40;;
55330;SDS011;58851;42.984;20.336;2023-07-31T01:42:06;16.60;;;7.95;;
55330;SDS011;58851;42.984;20.336;2023-07-31T01:44:32;19.85;;;8.90;;
55330;SDS011;58851;42.984;20.336;2023-07-31T01:46:58;16.45;;;9.48;;
55330;SDS011;58851;42.984;20.336;2023-07-31T01:49:25;20.25;;;9.80;;
55330;SDS011;58851;42.984;20.336;2023-07-31T01:51:51;15.85;;;8.23;;
55330;SDS011;58851;42.984;20.336;2023-07-31T01:54:17;20.35;;;8.52;;
55330;SDS011;58851;42.984;20.336;2023-07-31T01:56:42;18.05;;;8.13;;
55330;SDS011;58851;42.984;20.336;2023-07-31T01:59:08;17.35;;;7.28;;
55330;SDS011;58851;42.984;20.336;2023-07-31T02:01:34;19.23;;;8.27;;
55330;SDS011;58851;42.984;20.336;2023-07-31T02:03:59;19.00;;;8.23;;
55330;SDS011;58851;42.984;20.336;2023-07-31T02:06:25;17.33;;;8.77;;
55330;SDS011;58851;42.984;20.336;2023-07-31T02:08:51;17.55;;;8.55;;
55330;SDS011;58851;42.984;20.336;2023-07-31T02:11:17;24.23;;;10.05;;
55330;SDS011;58851;42.984;20.336;2023-07-31T02:13:43;19.45;;;9.02;;
55330;SDS011;58851;42.984;20.336;2023-07-31T02:16:09;19.25;;;9.52;;
55330;SDS011;58851;42.984;20.336;2023-07-31T02:18:34;15.75;;;8.23;;
55330;SDS011;58851;42.984;20.336;2023-07-31T02:21:00;17.05;;;8.55;;
55330;SDS011;58851;42.984;20.336;2023-07-31T02:23:26;21.42;;;8.75;;
55330;SDS011;58851;42.984;20.336;2023-07-31T02:25:52;21.95;;;9.77;;
55330;SDS011;58851;42.984;20.336;2023-07-31T02:28:17;16.15;;;8.20;;
55330;SDS011;58851;42.984;20.336;2023-07-31T02:30:44;20.35;;;9.80;;
55330;SDS011;58851;42.984;20.336;2023-07-31T02:33:13;20.52;;;9.05;;
55330;SDS011;58851;42.984;20.336;2023-07-31T02:35:40;24.15;;;9.80;;
55330;SDS011;58851;42.984;20.336;2023-07-31T02:38:06;17.55;;;7.97;;
55330;SDS011;58851;42.984;20.336;2023-07-31T02:40:32;17.15;;;8.45;;
55330;SDS011;58851;42.984;20.336;2023-07-31T02:42:57;16.27;;;7.75;;
55330;SDS011;58851;42.984;20.336;2023-07-31T02:45:23;16.60;;;8.30;;
55330;SDS011;58851;42.984;20.336;2023-07-31T02:47:49;17.42;;;9.63;;
55330;SDS011;58851;42.984;20.336;2023-07-31T02:50:15;14.80;;;7.38;;
55330;SDS011;58851;42.984;20.336;2023-07-31T02:52:41;20.92;;;8.93;;
55330;SDS011;58851;42.984;20.336;2023-07-31T02:55:06;18.17;;;8.77;;
55330;SDS011;58851;42.984;20.336;2023-07-31T02:57:32;20.05;;;9.60;;
55330;SDS011;58851;42.984;20.336;2023-07-31T02:59:58;19.67;;;8.55;;
55330;SDS011;58851;42.984;20.336;2023-07-31T03:02:24;17.95;;;8.35;;
55330;SDS011;58851;42.984;20.336;2023-07-31T03:04:50;18.88;;;8.18;;
55330;SDS011;58851;42.984;20.336;2023-07-31T03:07:15;13.30;;;7.75;;
55330;SDS011;58851;42.984;20.336;2023-07-31T03:09:41;17.33;;;8.40;;
55330;SDS011;58851;42.984;20.336;2023-07-31T03:12:07;14.82;;;7.45;;
55330;SDS011;58851;42.984;20.336;2023-07-31T03:14:33;19.13;;;8.23;;
55330;SDS011;58851;42.984;20.336;2023-07-31T03:16:59;21.50;;;8.55;;
55330;SDS011;58851;42.984;20.336;2023-07-31T03:19:25;19.27;;;7.82;;
55330;SDS011;58851;42.984;20.336;2023-07-31T03:21:50;17.23;;;8.27;;
55330;SDS011;58851;42.984;20.336;2023-07-31T03:24:16;18.17;;;9.10;;
55330;SDS011;58851;42.984;20.336;2023-07-31T03:26:42;20.75;;;9.73;;
55330;SDS011;58851;42.984;20.336;2023-07-31T03:29:08;16.48;;;8.30;;
55330;SDS011;58851;42.984;20.336;2023-07-31T03:31:34;17.73;;;8.95;;
55330;SDS011;58851;42.984;20.336;2023-07-31T03:33:59;16.38;;;8.15;;
55330;SDS011;58851;42.984;20.336;2023-07-31T03:36:25;14.70;;;8.35;;
55330;SDS011;58851;42.984;20.336;2023-07-31T03:38:51;16.38;;;9.63;;
55330;SDS011;58851;42.984;20.336;2023-07-31T03:41:17;20.17;;;10.38;;
55330;SDS011;58851;42.984;20.336;2023-07-31T03:43:43;21.38;;;11.18;;
55330;SDS011;58851;42.984;20.336;2023-07-31T03:46:10;22.88;;;10.52;;
55330;SDS011;58851;42.984;20.336;2023-07-31T03:48:36;18.92;;;9.25;;
55330;SDS011;58851;42.984;20.336;2023-07-31T03:51:02;22.88;;;9.60;;
55330;SDS011;58851;42.984;20.336;2023-07-31T03:53:28;20.13;;;10.43;;
55330;SDS011;58851;42.984;20.336;2023-07-31T03:55:54;21.98;;;10.52;;
55330;SDS011;58851;42.984;20.336;2023-07-31T03:58:20;17.63;;;9.50;;
55330;SDS011;58851;42.984;20.336;2023-07-31T04:00:45;24.13;;;10.20;;
55330;SDS011;58851;42.984;20.336;2023-07-31T04:03:12;18.42;;;9.48;;
55330;SDS011;58851;42.984;20.336;2023-07-31T04:05:38;20.67;;;9.75;;
55330;SDS011;58851;42.984;20.336;2023-07-31T04:08:05;20.10;;;10.63;;
55330;SDS011;58851;42.984;20.336;2023-07-31T04:10:30;24.95;;;12.23;;
55330;SDS011;58851;42.984;20.336;2023-07-31T04:12:59;22.30;;;12.20;;
55330;SDS011;58851;42.984;20.336;2023-07-31T04:15:25;23.17;;;10.75;;
55330;SDS011;58851;42.984;20.336;2023-07-31T04:17:51;18.38;;;9.95;;
55330;SDS011;58851;42.984;20.336;2023-07-31T04:20:17;24.30;;;10.05;;
55330;SDS011;58851;42.984;20.336;2023-07-31T04:22:43;19.40;;;9.20;;
55330;SDS011;58851;42.984;20.336;2023-07-31T04:25:08;17.92;;;10.43;;
55330;SDS011;58851;42.984;20.336;2023-07-31T04:27:34;19.35;;;9.80;;
55330;SDS011;58851;42.984;20.336;2023-07-31T04:30:00;20.80;;;10.75;;
55330;SDS011;58851;42.984;20.336;2023-07-31T04:32:26;17.67;;;9.93;;
55330;SDS011;58851;42.984;20.336;2023-07-31T04:34:52;16.45;;;9.57;;
55330;SDS011;58851;42.984;20.336;2023-07-31T04:37:17;19.42;;;10.38;;
55330;SDS011;58851;42.984;20.336;2023-07-31T04:39:43;17.73;;;9.73;;
55330;SDS011;58851;42.984;20.336;2023-07-31T04:42:09;19.27;;;9.35;;
55330;SDS011;58851;42.984;20.336;2023-07-31T04:44:35;26.55;;;11.05;;
55330;SDS011;58851;42.984;20.336;2023-07-31T04:47:01;21.30;;;10.45;;
55330;SDS011;58851;42.984;20.336;2023-07-31T04:49:27;23.23;;;10.63;;
55330;SDS011;58851;42.984;20.336;2023-07-31T04:51:53;23.58;;;11.20;;
55330;SDS011;58851;42.984;20.336;2023-07-31T04:54:19;20.80;;;10.40;;
55330;SDS011;58851;42.984;20.336;2023-07-31T04:56:44;18.58;;;10.77;;
55330;SDS011;58851;42.984;20.336;2023-07-31T04:59:10;19.13;;;10.77;;
55330;SDS011;58851;42.984;20.336;2023-07-31T05:01:36;19.08;;;9.05;;
55330;SDS011;58851;42.984;20.336;2023-07-31T05:04:02;19.80;;;9.02;;
55330;SDS011;58851;42.984;20.336;2023-07-31T05:06:27;18.23;;;9.60;;
55330;SDS011;58851;42.984;20.336;2023-07-31T05:08:53;16.55;;;8.90;;
55330;SDS011;58851;42.984;20.336;2023-07-31T05:11:19;16.70;;;9.38;;
55330;SDS011;58851;42.984;20.336;2023-07-31T05:13:45;17.48;;;9.13;;
55330;SDS011;58851;42.984;20.336;2023-07-31T05:16:10;16.58;;;10.07;;
55330;SDS011;58851;42.984;20.336;2023-07-31T05:18:36;18.90;;;11.20;;
55330;SDS011;58851;42.984;20.336;2023-07-31T05:21:02;24.58;;;11.85;;
55330;SDS011;58851;42.984;20.336;2023-07-31T05:23:28;21.40;;;11.52;;
55330;SDS011;58851;42.984;20.336;2023-07-31T05:25:54;21.13;;;11.85;;
55330;SDS011;58851;42.984;20.336;2023-07-31T05:28:21;29.52;;;15.52;;
55330;SDS011;58851;42.984;20.336;2023-07-31T05:30:47;28.13;;;13.65;;
55330;SDS011;58851;42.984;20.336;2023-07-31T05:33:12;32.10;;;18.58;;
55330;SDS011;58851;42.984;20.336;2023-07-31T05:35:38;32.47;;;14.27;;
55330;SDS011;58851;42.984;20.336;2023-07-31T05:38:04;26.50;;;13.48;;
55330;SDS011;58851;42.984;20.336;2023-07-31T05:40:31;26.75;;;13.40;;
55330;SDS011;58851;42.984;20.336;2023-07-31T05:42:58;22.83;;;14.63;;
55330;SDS011;58851;42.984;20.336;2023-07-31T05:45:24;20.52;;;13.82;;
55330;SDS011;58851;42.984;20.336;2023-07-31T05:47:50;21.67;;;12.07;;
55330;SDS011;58851;42.984;20.336;2023-07-31T05:50:16;20.23;;;12.93;;
55330;SDS011;58851;42.984;20.336;2023-07-31T05:52:42;20.75;;;12.30;;
55330;SDS011;58851;42.984;20.336;2023-07-31T05:55:08;26.15;;;13.23;;
55330;SDS011;58851;42.984;20.336;2023-07-31T05:57:34;27.30;;;12.82;;
55330;SDS011;58851;42.984;20.336;2023-07-31T05:59:59;27.85;;;15.15;;
55330;SDS011;58851;42.984;20.336;2023-07-31T06:02:25;21.33;;;14.15;;
55330;SDS011;58851;42.984;20.336;2023-07-31T06:04:51;22.80;;;13.32;;
55330;SDS011;58851;42.984;20.336;2023-07-31T06:07:17;25.52;;;15.07;;
55330;SDS011;58851;42.984;20.336;2023-07-31T06:09:42;27.20;;;14.90;;
55330;SDS011;58851;42.984;20.336;2023-07-31T06:12:08;33.78;;;17.00;;
55330;SDS011;58851;42.984;20.336;2023-07-31T06:14:34;30.25;;;15.75;;
55330;SDS011;58851;42.984;20.336;2023-07-31T06:17:00;32.78;;;19.08;;
55330;SDS011;58851;42.984;20.336;2023-07-31T06:19:26;31.85;;;19.02;;
55330;SDS011;58851;42.984;20.336;2023-07-31T06:21:51;34.92;;;18.02;;
55330;SDS011;58851;42.984;20.336;2023-07-31T06:24:17;43.17;;;22.60;;
55330;SDS011;58851;42.984;20.336;2023-07-31T06:26:45;37.97;;;19.17;;
55330;SDS011;58851;42.984;20.336;2023-07-31T06:29:11;28.73;;;16.58;;
55330;SDS011;58851;42.984;20.336;2023-07-31T06:31:37;31.52;;;17.05;;
55330;SDS011;58851;42.984;20.336;2023-07-31T06:34:02;26.65;;;17.05;;
55330;SDS011;58851;42.984;20.336;2023-07-31T06:36:28;27.13;;;16.30;;
55330;SDS011;58851;42.984;20.336;2023-07-31T06:38:54;27.52;;;14.95;;
55330;SDS011;58851;42.984;20.336;2023-07-31T06:41:19;28.02;;;17.58;;
55330;SDS011;58851;42.984;20.336;2023-07-31T06:43:45;27.17;;;16.02;;
55330;SDS011;58851;42.984;20.336;2023-07-31T06:46:11;24.05;;;16.08;;
55330;SDS011;58851;42.984;20.336;2023-07-31T06:48:37;20.23;;;15.70;;
55330;SDS011;58851;42.984;20.336;2023-07-31T06:51:03;25.45;;;17.00;;
55330;SDS011;58851;42.984;20.336;2023-07-31T06:53:29;25.08;;;16.13;;
55330;SDS011;58851;42.984;20.336;2023-07-31T06:55:55;29.65;;;18.27;;
55330;SDS011;58851;42.984;20.336;2023-07-31T06:58:20;32.50;;;20.63;;
55330;SDS011;58851;42.984;20.336;2023-07-31T07:00:46;27.23;;;21.90;;
55330;SDS011;58851;42.984;20.336;2023-07-31T07:03:14;29.05;;;19.55;;
55330;SDS011;58851;42.984;20.336;2023-07-31T07:05:40;18.90;;;14.27;;
55330;SDS011;58851;42.984;20.336;2023-07-31T07:08:06;23.25;;;17.80;;
55330;SDS011;58851;42.984;20.336;2023-07-31T07:10:31;15.10;;;12.70;;
55330;SDS011;58851;42.984;20.336;2023-07-31T07:12:57;15.50;;;12.05;;
55330;SDS011;58851;42.984;20.336;2023-07-31T07:15:23;16.50;;;11.90;;
55330;SDS011;58851;42.984;20.336;2023-07-31T07:17:49;17.75;;;12.73;;
55330;SDS011;58851;42.984;20.336;2023-07-31T07:20:14;14.57;;;11.05;;
55330;SDS011;58851;42.984;20.336;2023-07-31T07:22:40;14.10;;;10.38;;
55330;SDS011;58851;42.984;20.336;2023-07-31T07:25:08;12.75;;;9.75;;
55330;SDS011;58851;42.984;20.336;2023-07-31T07:27:34;13.55;;;10.68;;
55330;SDS011;58851;42.984;20.336;2023-07-31T07:30:00;11.82;;;10.15;;
55330;SDS011;58851;42.984;20.336;2023-07-31T07:32:26;14.20;;;10.23;;
55330;SDS011;58851;42.984;20.336;2023-07-31T07:34:52;14.50;;;9.48;;
55330;SDS011;58851;42.984;20.336;2023-07-31T07:37:18;11.02;;;9.13;;
55330;SDS011;58851;42.984;20.336;2023-07-31T07:39:43;12.52;;;8.63;;
55330;SDS011;58851;42.984;20.336;2023-07-31T07:42:09;11.30;;;7.43;;
55330;SDS011;58851;42.984;20.336;2023-07-31T07:44:35;30.48;;;21.88;;
55330;SDS011;58851;42.984;20.336;2023-07-31T07:47:01;10.40;;;7.28;;
55330;SDS011;58851;42.984;20.336;2023-07-31T07:49:27;10.15;;;7.60;;
55330;SDS011;58851;42.984;20.336;2023-07-31T07:51:53;8.80;;;6.97;;
55330;SDS011;58851;42.984;20.336;2023-07-31T07:54:18;10.98;;;7.82;;
55330;SDS011;58851;42.984;20.336;2023-07-31T07:56:47;9.98;;;6.65;;
55330;SDS011;58851;42.984;20.336;2023-07-31T07:59:13;8.13;;;6.82;;
55330;SDS011;58851;42.984;20.336;2023-07-31T08:01:38;10.32;;;8.45;;
55330;SDS011;58851;42.984;20.336;2023-07-31T08:04:04;14.68;;;8.50;;
55330;SDS011;58851;42.984;20.336;2023-07-31T08:06:30;7.35;;;5.55;;
55330;SDS011;58851;42.984;20.336;2023-07-31T08:08:56;8.10;;;5.60;;
55330;SDS011;58851;42.984;20.336;2023-07-31T08:11:21;7.03;;;5.32;;
55330;SDS011;58851;42.984;20.336;2023-07-31T08:13:49;6.85;;;4.68;;
55330;SDS011;58851;42.984;20.336;2023-07-31T08:16:15;7.63;;;5.80;;
55330;SDS011;58851;42.984;20.336;2023-07-31T08:18:41;9.13;;;5.32;;
55330;SDS011;58851;42.984;20.336;2023-07-31T08:21:08;7.75;;;6.38;;
55330;SDS011;58851;42.984;20.336;2023-07-31T08:23:34;9.05;;;5.50;;
55330;SDS011;58851;42.984;20.336;2023-07-31T08:25:59;7.20;;;5.50;;
55330;SDS011;58851;42.984;20.336;2023-07-31T08:28:25;8.45;;;4.88;;
55330;SDS011;58851;42.984;20.336;2023-07-31T08:30:51;5.93;;;4.57;;
55330;SDS011;58851;42.984;20.336;2023-07-31T08:33:17;7.38;;;4.32;;
55330;SDS011;58851;42.984;20.336;2023-07-31T08:35:42;5.22;;;3.42;;
55330;SDS011;58851;42.984;20.336;2023-07-31T08:38:08;9.90;;;5.35;;
55330;SDS011;58851;42.984;20.336;2023-07-31T08:40:37;7.45;;;4.93;;
55330;SDS011;58851;42.984;20.336;2023-07-31T08:43:03;19.80;;;6.22;;
55330;SDS011;58851;42.984;20.336;2023-07-31T08:45:29;6.90;;;4.78;;
55330;SDS011;58851;42.984;20.336;2023-07-31T08:47:56;9.10;;;5.75;;
55330;SDS011;58851;42.984;20.336;2023-07-31T08:50:22;7.70;;;4.85;;
55330;SDS011;58851;42.984;20.336;2023-07-31T08:52:49;6.68;;;4.68;;
55330;SDS011;58851;42.984;20.336;2023-07-31T08:55:16;8.90;;;5.30;;
55330;SDS011;58851;42.984;20.336;2023-07-31T08:57:42;7.55;;;5.47;;
55330;SDS011;58851;42.984;20.336;2023-07-31T09:00:09;7.72;;;4.90;;
55330;SDS011;58851;42.984;20.336;2023-07-31T09:05:22;6.55;;;5.10;;
55330;SDS011;58851;42.984;20.336;2023-07-31T09:07:51;10.77;;;5.05;;
55330;SDS011;58851;42.984;20.336;2023-07-31T09:10:17;7.43;;;6.32;;
55330;SDS011;58851;42.984;20.336;2023-07-31T09:12:43;7.72;;;6.13;;
55330;SDS011;58851;42.984;20.336;2023-07-31T09:15:09;10.15;;;6.97;;
55330;SDS011;58851;42.984;20.336;2023-07-31T09:17:36;10.15;;;7.50;;
55330;SDS011;58851;42.984;20.336;2023-07-31T09:20:21;9.88;;;6.18;;
55330;SDS011;58851;42.984;20.336;2023-07-31T09:22:47;8.38;;;7.00;;
55330;SDS011;58851;42.984;20.336;2023-07-31T09:27:50;8.63;;;5.47;;
55330;SDS011;58851;42.984;20.336;2023-07-31T09:30:20;11.13;;;5.70;;
55330;SDS011;58851;42.984;20.336;2023-07-31T09:32:47;7.43;;;5.75;;
55330;SDS011;58851;42.984;20.336;2023-07-31T09:35:20;8.38;;;5.28;;
55330;SDS011;58851;42.984;20.336;2023-07-31T09:37:52;9.63;;;5.60;;
55330;SDS011;58851;42.984;20.336;2023-07-31T09:40:33;9.60;;;5.75;;
55330;SDS011;58851;42.984;20.336;2023-07-31T09:43:01;6.82;;;5.10;;
55330;SDS011;58851;42.984;20.336;2023-07-31T09:45:33;11.52;;;6.88;;
55330;SDS011;58851;42.984;20.336;2023-07-31T09:48:01;6.90;;;5.05;;
55330;SDS011;58851;42.984;20.336;2023-07-31T09:50:28;8.38;;;4.00;;
55330;SDS011;58851;42.984;20.336;2023-07-31T09:52:54;5.90;;;3.85;;
55330;SDS011;58851;42.984;20.336;2023-07-31T09:55:20;6.43;;;3.60;;
55330;SDS011;58851;42.984;20.336;2023-07-31T09:57:47;5.70;;;3.65;;
55330;SDS011;58851;42.984;20.336;2023-07-31T10:00:14;10.98;;;5.40;;
55330;SDS011;58851;42.984;20.336;2023-07-31T10:02:43;8.00;;;4.75;;
55330;SDS011;58851;42.984;20.336;2023-07-31T10:05:12;7.70;;;4.93;;
55330;SDS011;58851;42.984;20.336;2023-07-31T10:07:40;8.23;;;4.82;;
55330;SDS011;58851;42.984;20.336;2023-07-31T10:10:19;9.48;;;5.20;;
55330;SDS011;58851;42.984;20.336;2023-07-31T10:12:50;7.97;;;5.63;;
55330;SDS011;58851;42.984;20.336;2023-07-31T10:15:18;6.60;;;5.03;;
55330;SDS011;58851;42.984;20.336;2023-07-31T10:17:46;7.32;;;5.30;;
55330;SDS011;58851;42.984;20.336;2023-07-31T10:20:13;7.68;;;4.95;;
55330;SDS011;58851;42.984;20.336;2023-07-31T10:22:41;8.65;;;5.53;;
55330;SDS011;58851;42.984;20.336;2023-07-31T10:25:08;8.18;;;4.78;;
55330;SDS011;58851;42.984;20.336;2023-07-31T10:27:35;9.05;;;5.65;;
55330;SDS011;58851;42.984;20.336;2023-07-31T10:30:03;9.07;;;5.63;;
55330;SDS011;58851;42.984;20.336;2023-07-31T10:32:31;9.05;;;5.70;;
55330;SDS011;58851;42.984;20.336;2023-07-31T10:34:58;9.02;;;4.93;;
55330;SDS011;58851;42.984;20.336;2023-07-31T10:40:11;7.63;;;5.80;;
55330;SDS011;58851;42.984;20.336;2023-07-31T10:42:52;7.70;;;4.93;;
55330;SDS011;58851;42.984;20.336;2023-07-31T10:45:25;7.28;;;5.38;;
55330;SDS011;58851;42.984;20.336;2023-07-31T10:48:05;7.05;;;5.53;;
55330;SDS011;58851;42.984;20.336;2023-07-31T10:50:38;13.82;;;7.38;;
55330;SDS011;58851;42.984;20.336;2023-07-31T10:53:22;8.82;;;5.05;;
55330;SDS011;58851;42.984;20.336;2023-07-31T10:55:52;8.07;;;4.55;;
55330;SDS011;58851;42.984;20.336;2023-07-31T10:58:19;6.03;;;4.60;;
55330;SDS011;58851;42.984;20.336;2023-07-31T11:00:46;6.72;;;4.97;;
55330;SDS011;58851;42.984;20.336;2023-07-31T11:03:16;6.97;;;4.60;;
55330;SDS011;58851;42.984;20.336;2023-07-31T11:08:27;9.05;;;4.13;;
55330;SDS011;58851;42.984;20.336;2023-07-31T11:13:28;7.65;;;4.03;;
55330;SDS011;58851;42.984;20.336;2023-07-31T11:15:55;7.47;;;3.88;;
55330;SDS011;58851;42.984;20.336;2023-07-31T11:18:21;5.30;;;3.83;;
55330;SDS011;58851;42.984;20.336;2023-07-31T11:20:48;4.72;;;3.30;;
55330;SDS011;58851;42.984;20.336;2023-07-31T11:23:15;6.60;;;4.22;;
55330;SDS011;58851;42.984;20.336;2023-07-31T11:25:42;11.75;;;8.55;;
55330;SDS011;58851;42.984;20.336;2023-07-31T11:28:15;7.80;;;4.50;;
55330;SDS011;58851;42.984;20.336;2023-07-31T11:30:47;6.97;;;4.03;;
55330;SDS011;58851;42.984;20.336;2023-07-31T11:33:13;11.60;;;4.97;;
55330;SDS011;58851;42.984;20.336;2023-07-31T11:35:46;28.45;;;21.48;;
55330;SDS011;58851;42.984;20.336;2023-07-31T11:40:53;4.55;;;2.95;;
55330;SDS011;58851;42.984;20.336;2023-07-31T11:43:21;4.35;;;2.97;;
55330;SDS011;58851;42.984;20.336;2023-07-31T11:45:56;6.35;;;2.42;;
55330;SDS011;58851;42.984;20.336;2023-07-31T11:50:55;4.28;;;2.97;;
55330;SDS011;58851;42.984;20.336;2023-07-31T11:53:25;4.05;;;2.80;;
55330;SDS011;58851;42.984;20.336;2023-07-31T11:55:59;7.30;;;4.35;;
55330;SDS011;58851;42.984;20.336;2023-07-31T11:58:25;4.93;;;3.17;;
55330;SDS011;58851;42.984;20.336;2023-07-31T12:00:52;4.28;;;3.05;;
55330;SDS011;58851;42.984;20.336;2023-07-31T12:03:19;4.43;;;3.10;;
55330;SDS011;58851;42.984;20.336;2023-07-31T12:05:47;5.30;;;3.22;;
55330;SDS011;58851;42.984;20.336;2023-07-31T12:08:13;4.72;;;3.28;;
55330;SDS011;58851;42.984;20.336;2023-07-31T12:10:40;5.88;;;2.70;;
55330;SDS011;58851;42.984;20.336;2023-07-31T12:13:10;3.97;;;2.63;;
55330;SDS011;58851;42.984;20.336;2023-07-31T12:15:43;7.50;;;6.07;;
55330;SDS011;58851;42.984;20.336;2023-07-31T12:18:10;4.43;;;3.00;;
55330;SDS011;58851;42.984;20.336;2023-07-31T12:20:43;4.43;;;2.90;;
55330;SDS011;58851;42.984;20.336;2023-07-31T12:23:16;6.13;;;2.95;;
55330;SDS011;58851;42.984;20.336;2023-07-31T12:25:44;6.18;;;5.22;;
55330;SDS011;58851;42.984;20.336;2023-07-31T12:28:10;5.88;;;2.47;;
55330;SDS011;58851;42.984;20.336;2023-07-31T12:30:40;7.25;;;2.83;;
55330;SDS011;58851;42.984;20.336;2023-07-31T12:33:15;4.15;;;2.78;;
55330;SDS011;58851;42.984;20.336;2023-07-31T12:35:44;4.03;;;2.80;;
55330;SDS011;58851;42.984;20.336;2023-07-31T12:38:12;6.22;;;3.05;;
55330;SDS011;58851;42.984;20.336;2023-07-31T12:40:39;4.90;;;2.60;;
55330;SDS011;58851;42.984;20.336;2023-07-31T12:43:06;6.00;;;2.95;;
55330;SDS011;58851;42.984;20.336;2023-07-31T12:45:32;5.63;;;2.60;;
55330;SDS011;58851;42.984;20.336;2023-07-31T12:47:59;5.07;;;3.35;;
55330;SDS011;58851;42.984;20.336;2023-07-31T12:50:25;6.80;;;4.30;;
55330;SDS011;58851;42.984;20.336;2023-07-31T12:52:53;12.10;;;4.88;;
55330;SDS011;58851;42.984;20.336;2023-07-31T12:55:20;7.75;;;4.72;;
55330;SDS011;58851;42.984;20.336;2023-07-31T12:57:46;10.45;;;4.47;;
55330;SDS011;58851;42.984;20.336;2023-07-31T13:00:12;6.43;;;4.13;;
55330;SDS011;58851;42.984;20.336;2023-07-31T13:02:38;5.68;;;4.10;;
55330;SDS011;58851;42.984;20.336;2023-07-31T13:05:04;5.15;;;3.05;;
55330;SDS011;58851;42.984;20.336;2023-07-31T13:07:30;10.60;;;3.70;;
55330;SDS011;58851;42.984;20.336;2023-07-31T13:09:57;9.57;;;4.22;;
55330;SDS011;58851;42.984;20.336;2023-07-31T13:12:23;6.50;;;3.63;;
55330;SDS011;58851;42.984;20.336;2023-07-31T13:14:50;6.85;;;3.38;;
55330;SDS011;58851;42.984;20.336;2023-07-31T13:17:17;7.03;;;4.40;;
55330;SDS011;58851;42.984;20.336;2023-07-31T13:19:43;5.45;;;3.92;;
55330;SDS011;58851;42.984;20.336;2023-07-31T13:22:09;7.35;;;4.53;;
55330;SDS011;58851;42.984;20.336;2023-07-31T13:24:35;6.00;;;3.40;;
55330;SDS011;58851;42.984;20.336;2023-07-31T13:27:00;7.32;;;4.28;;
55330;SDS011;58851;42.984;20.336;2023-07-31T13:29:26;7.38;;;5.50;;
55330;SDS011;58851;42.984;20.336;2023-07-31T13:31:52;4.40;;;3.10;;
55330;SDS011;58851;42.984;20.336;2023-07-31T13:34:18;3.97;;;2.38;;
55330;SDS011;58851;42.984;20.336;2023-07-31T13:36:45;4.82;;;2.25;;
55330;SDS011;58851;42.984;20.336;2023-07-31T13:39:11;4.43;;;2.45;;
55330;SDS011;58851;42.984;20.336;2023-07-31T13:41:37;7.88;;;3.10;;
55330;SDS011;58851;42.984;20.336;2023-07-31T13:44:03;5.25;;;2.67;;
55330;SDS011;58851;42.984;20.336;2023-07-31T13:46:29;4.72;;;2.85;;
55330;SDS011;58851;42.984;20.336;2023-07-31T13:48:54;14.68;;;10.00;;
55330;SDS011;58851;42.984;20.336;2023-07-31T13:51:23;6.22;;;3.40;;
55330;SDS011;58851;42.984;20.336;2023-07-31T13:53:49;4.88;;;3.35;;
55330;SDS011;58851;42.984;20.336;2023-07-31T13:56:15;5.03;;;2.70;;
55330;SDS011;58851;42.984;20.336;2023-07-31T13:58:41;5.55;;;2.55;;
55330;SDS011;58851;42.984;20.336;2023-07-31T14:01:06;5.93;;;3.10;;
55330;SDS011;58851;42.984;20.336;2023-07-31T14:03:32;5.50;;;2.33;;
55330;SDS011;58851;42.984;20.336;2023-07-31T14:05:58;3.63;;;2.30;;
55330;SDS011;58851;42.984;20.336;2023-07-31T14:08:24;5.57;;;2.30;;
55330;SDS011;58851;42.984;20.336;2023-07-31T14:10:49;4.20;;;2.58;;
55330;SDS011;58851;42.984;20.336;2023-07-31T14:13:15;5.55;;;2.40;;
55330;SDS011;58851;42.984;20.336;2023-07-31T14:15:41;3.67;;;2.38;;
55330;SDS011;58851;42.984;20.336;2023-07-31T14:18:10;10.30;;;2.38;;
55330;SDS011;58851;42.984;20.336;2023-07-31T14:20:36;4.65;;;2.10;;
55330;SDS011;58851;42.984;20.336;2023-07-31T14:23:02;5.13;;;2.05;;
55330;SDS011;58851;42.984;20.336;2023-07-31T14:25:28;4.88;;;2.90;;
55330;SDS011;58851;42.984;20.336;2023-07-31T14:27:54;5.30;;;2.35;;
55330;SDS011;58851;42.984;20.336;2023-07-31T14:30:20;4.13;;;2.20;;
55330;SDS011;58851;42.984;20.336;2023-07-31T14:32:46;5.00;;;2.30;;
55330;SDS011;58851;42.984;20.336;2023-07-31T14:35:15;5.32;;;2.00;;
55330;SDS011;58851;42.984;20.336;2023-07-31T14:37:44;7.88;;;2.35;;
55330;SDS011;58851;42.984;20.336;2023-07-31T14:40:12;6.10;;;2.47;;
55330;SDS011;58851;42.984;20.336;2023-07-31T14:42:38;4.28;;;2.10;;
55330;SDS011;58851;42.984;20.336;2023-07-31T14:45:05;4.70;;;2.20;;
55330;SDS011;58851;42.984;20.336;2023-07-31T14:47:32;6.47;;;2.38;;